Time;durP1;ratioP1;P1;durP2;ratioP2;P2;SDS_P1;SDS_P2;PMS_P1;PMS_P2;Temp;Humidity;BMP_temperature;BMP_pressure;BME280_temperature;BME280_humidity;BME280_pressure;Samples;Min_cycle;Max_cycle;Signal;HPM_P1;HPM_P2
2023/12/10 00:02:20;;;;;;;26.57;4.40;;;11.10;99.90;;;;;;7308430;19;20195;-82
2023/12/10 00:04:46;;;;;;;31.87;5.00;;;11.20;99.90;;;;;;7288453;19;20209;-84
2023/12/10 00:07:11;;;;;;;29.63;4.20;;;11.20;99.90;;;;;;7284527;19;21776;-84
2023/12/10 00:09:37;;;;;;;34.57;5.27;;;11.20;99.90;;;;;;7286579;19;20198;-84
2023/12/10 00:12:03;;;;;;;27.30;4.40;;;11.20;99.90;;;;;;7283171;19;20190;-84
2023/12/10 00:14:29;;;;;;;32.33;4.57;;;11.30;99.90;;;;;;7286071;19;20193;-84
2023/12/10 00:16:55;;;;;;;29.37;4.00;;;11.20;99.90;;;;;;7284741;19;20186;-84
2023/12/10 00:19:21;;;;;;;30.13;4.63;;;11.20;99.90;;;;;;7297468;19;20221;-84
2023/12/10 00:21:47;;;;;;;31.40;4.40;;;11.20;99.90;;;;;;7303877;19;20190;-84
2023/12/10 00:24:14;;;;;;;32.97;4.27;;;11.00;99.90;;;;;;7286112;19;20191;-83
2023/12/10 00:26:40;;;;;;;26.23;4.23;;;11.00;99.90;;;;;;7285616;19;20211;-84
2023/12/10 00:29:06;;;;;;;25.57;4.03;;;11.00;99.90;;;;;;7285082;19;20963;-84
2023/12/10 00:31:31;;;;;;;38.00;4.60;;;11.00;99.90;;;;;;7286187;19;20206;-84
2023/12/10 00:33:57;;;;;;;32.50;4.33;;;11.10;99.90;;;;;;7284570;19;20602;-84
2023/12/10 00:36:23;;;;;;;30.93;3.97;;;11.10;99.90;;;;;;7286205;19;20182;-84
2023/12/10 00:38:49;;;;;;;29.73;4.47;;;11.10;99.90;;;;;;7306894;19;20188;-84
2023/12/10 00:41:15;;;;;;;29.37;4.30;;;11.10;99.90;;;;;;7282329;19;20624;-84
2023/12/10 00:43:41;;;;;;;26.93;4.07;;;11.00;99.90;;;;;;7285483;19;20196;-84
2023/12/10 00:46:08;;;;;;;28.77;4.20;;;11.00;99.90;;;;;;7284454;19;20197;-84
2023/12/10 00:48:35;;;;;;;29.43;4.43;;;11.00;99.90;;;;;;7284142;19;20191;-84
2023/12/10 00:51:01;;;;;;;26.30;3.90;;;10.90;99.90;;;;;;7285625;19;20191;-83
2023/12/10 00:53:27;;;;;;;30.00;4.30;;;10.90;99.90;;;;;;7284973;19;20214;-83
2023/12/10 00:55:52;;;;;;;28.33;4.53;;;10.90;99.90;;;;;;7284900;19;20201;-83
2023/12/10 00:58:18;;;;;;;23.80;3.90;;;10.90;99.90;;;;;;7305595;19;20183;-84
2023/12/10 01:00:44;;;;;;;37.13;4.83;;;10.80;99.90;;;;;;7285185;19;20190;-84
2023/12/10 01:03:10;;;;;;;29.73;4.20;;;10.80;99.90;;;;;;7282779;19;25153;-84
2023/12/10 01:05:36;;;;;;;30.73;4.27;;;10.80;99.90;;;;;;7283276;19;20194;-84
2023/12/10 01:08:03;;;;;;;28.53;4.77;;;10.80;99.90;;;;;;7283253;19;20255;-84
2023/12/10 01:10:29;;;;;;;24.73;3.67;;;10.80;99.90;;;;;;7283858;19;20713;-84
2023/12/10 01:12:56;;;;;;;35.53;4.63;;;10.90;99.90;;;;;;7285012;19;20689;-84
2023/12/10 01:15:29;;;;;;;32.10;3.90;;;10.90;99.90;;;;;;7284284;19;20697;-84
2023/12/10 01:18:00;;;;;;;30.43;4.40;;;10.90;99.90;;;;;;7283268;19;20210;-84
2023/12/10 01:20:33;;;;;;;29.97;4.67;;;10.90;99.90;;;;;;7284523;19;20302;-84
2023/12/10 01:23:00;;;;;;;28.23;4.40;;;10.90;99.90;;;;;;7283106;19;20667;-84
2023/12/10 01:25:26;;;;;;;30.23;4.50;;;10.90;99.90;;;;;;7281550;19;20220;-84
2023/12/10 01:27:53;;;;;;;25.73;4.87;;;10.80;99.90;;;;;;7282839;19;20177;-85
2023/12/10 01:30:25;;;;;;;28.87;4.37;;;10.90;99.90;;;;;;7307542;19;20262;-84
2023/12/10 01:32:59;;;;;;;34.20;5.10;;;10.90;99.90;;;;;;7270400;19;20317;-84
2023/12/10 01:35:26;;;;;;;26.53;4.30;;;10.80;99.90;;;;;;7283435;19;20187;-84
2023/12/10 01:37:52;;;;;;;27.27;4.53;;;10.80;99.90;;;;;;7284925;19;20705;-84
2023/12/10 01:40:22;;;;;;;32.07;5.07;;;10.80;99.90;;;;;;7306177;19;20279;-84
2023/12/10 01:42:48;;;;;;;28.67;4.20;;;10.90;99.90;;;;;;7283175;19;20186;-85
2023/12/10 01:45:14;;;;;;;29.10;4.53;;;10.90;99.90;;;;;;7282862;19;20709;-85
2023/12/10 01:47:44;;;;;;;30.90;4.50;;;11.00;99.90;;;;;;7281685;19;20203;-85
2023/12/10 01:50:13;;;;;;;32.37;4.20;;;11.00;99.90;;;;;;7282129;19;20206;-84
2023/12/10 01:52:40;;;;;;;34.47;5.33;;;10.90;99.90;;;;;;7283500;19;20189;-85
2023/12/10 01:55:08;;;;;;;34.20;5.27;;;11.00;99.90;;;;;;7284012;19;21221;-85
2023/12/10 01:57:35;;;;;;;28.50;4.70;;;10.90;99.90;;;;;;7283119;19;20196;-85
2023/12/10 02:00:01;;;;;;;26.53;4.47;;;11.00;99.90;;;;;;7282656;19;20212;-85
2023/12/10 02:02:27;;;;;;;28.37;4.13;;;11.00;99.90;;;;;;7282416;19;20194;-84
2023/12/10 02:04:56;;;;;;;35.27;4.60;;;11.00;99.90;;;;;;7282763;19;20191;-84
2023/12/10 02:07:22;;;;;;;30.87;4.40;;;10.90;99.90;;;;;;7287291;19;20203;-84
2023/12/10 02:09:48;;;;;;;30.10;4.17;;;10.90;99.90;;;;;;7303259;19;20204;-85
2023/12/10 02:12:15;;;;;;;34.17;5.50;;;10.90;99.90;;;;;;7281990;19;20238;-84
2023/12/10 02:14:41;;;;;;;33.90;4.97;;;10.90;99.90;;;;;;7281802;19;20205;-85
2023/12/10 02:17:06;;;;;;;30.97;4.70;;;10.90;99.90;;;;;;7283884;19;20192;-85
2023/12/10 02:19:33;;;;;;;30.57;5.07;;;10.90;99.90;;;;;;7289490;19;20205;-84
2023/12/10 02:22:01;;;;;;;24.97;4.87;;;10.90;99.90;;;;;;7291839;19;20194;-85
2023/12/10 02:24:35;;;;;;;32.57;4.43;;;10.90;99.90;;;;;;7291955;19;20219;-85
2023/12/10 02:27:02;;;;;;;36.23;4.83;;;10.80;99.90;;;;;;7291485;19;20195;-85
2023/12/10 02:29:28;;;;;;;30.87;4.93;;;10.80;99.90;;;;;;7289103;19;20207;-85
2023/12/10 02:31:54;;;;;;;37.07;5.40;;;10.80;99.90;;;;;;7289057;19;20199;-85
2023/12/10 02:34:21;;;;;;;38.90;5.40;;;10.80;99.90;;;;;;7310283;19;20191;-85
2023/12/10 02:36:47;;;;;;;34.30;5.03;;;10.90;99.90;;;;;;7349935;19;20977;-86
2023/12/10 02:39:12;;;;;;;28.80;5.00;;;10.90;99.90;;;;;;7401883;19;20138;-85
2023/12/10 02:41:38;;;;;;;32.70;5.27;;;10.90;99.90;;;;;;7354028;19;20194;-86
2023/12/10 02:44:04;;;;;;;34.10;4.80;;;11.00;99.90;;;;;;7287995;19;20195;-86
2023/12/10 02:46:30;;;;;;;29.07;4.63;;;11.00;99.90;;;;;;7289264;19;20214;-86
2023/12/10 02:48:55;;;;;;;38.03;5.40;;;11.00;99.90;;;;;;7285666;19;20620;-85
2023/12/10 02:51:21;;;;;;;36.60;5.07;;;10.90;99.90;;;;;;7299917;19;20190;-85
2023/12/10 02:53:47;;;;;;;36.13;5.80;;;10.90;99.90;;;;;;7306378;19;20250;-86
2023/12/10 02:56:13;;;;;;;38.90;5.00;;;10.90;99.90;;;;;;7292305;19;20215;-85
2023/12/10 02:58:38;;;;;;;32.00;5.03;;;10.80;99.90;;;;;;7291648;19;20201;-85
2023/12/10 03:01:04;;;;;;;37.00;5.17;;;10.80;99.90;;;;;;7288539;19;20194;-86
2023/12/10 03:03:30;;;;;;;32.33;4.30;;;10.80;99.90;;;;;;7288255;19;20233;-86
2023/12/10 03:05:57;;;;;;;34.53;5.47;;;10.80;99.90;;;;;;7287895;19;20194;-85
2023/12/10 03:08:22;;;;;;;35.97;5.77;;;10.70;99.90;;;;;;7288048;19;20204;-84
2023/12/10 03:10:51;;;;;;;41.63;5.27;;;10.70;99.90;;;;;;7300384;19;20207;-85
2023/12/10 03:13:17;;;;;;;28.07;4.37;;;10.70;99.90;;;;;;7305090;19;20685;-85
2023/12/10 03:15:43;;;;;;;42.13;5.17;;;10.70;99.90;;;;;;7286754;19;20190;-86
2023/12/10 03:18:09;;;;;;;37.67;5.30;;;10.70;99.90;;;;;;7286557;19;20190;-85
2023/12/10 03:20:34;;;;;;;33.00;5.27;;;10.70;99.90;;;;;;7287460;19;20178;-85
2023/12/10 03:23:01;;;;;;;37.00;4.70;;;10.60;99.90;;;;;;7287827;19;20185;-85
2023/12/10 03:25:27;;;;;;;43.17;4.90;;;10.70;99.90;;;;;;7287280;19;20190;-85
2023/12/10 03:27:52;;;;;;;44.60;5.93;;;10.70;99.90;;;;;;7286896;19;20715;-85
2023/12/10 03:30:18;;;;;;;35.37;4.97;;;10.70;99.90;;;;;;7306632;19;20312;-86
2023/12/10 03:32:44;;;;;;;33.13;4.97;;;10.60;99.90;;;;;;7286704;19;20223;-86
2023/12/10 03:35:10;;;;;;;31.80;4.77;;;10.60;99.90;;;;;;7290972;19;20189;-85
2023/12/10 03:37:35;;;;;;;29.37;4.40;;;10.60;99.90;;;;;;7289922;19;20207;-86
2023/12/10 03:40:02;;;;;;;35.77;4.77;;;10.60;99.90;;;;;;7290797;19;20206;-85
2023/12/10 03:42:28;;;;;;;39.40;5.03;;;10.60;99.90;;;;;;7290010;19;20195;-85
2023/12/10 03:44:56;;;;;;;26.53;4.03;;;10.60;99.90;;;;;;7287189;19;20836;-84
2023/12/10 03:47:21;;;;;;;38.03;4.80;;;10.70;99.90;;;;;;7298095;19;20198;-84
2023/12/10 03:49:47;;;;;;;33.70;4.67;;;10.60;99.90;;;;;;7302174;19;20186;-85
2023/12/10 03:52:13;;;;;;;38.30;4.43;;;10.60;99.90;;;;;;7289314;19;20185;-86
2023/12/10 03:54:40;;;;;;;30.73;4.43;;;10.60;99.90;;;;;;7289982;19;20193;-85
2023/12/10 03:57:05;;;;;;;31.87;4.83;;;10.50;99.90;;;;;;7292801;19;20634;-86
2023/12/10 03:59:31;;;;;;;35.87;5.10;;;10.50;99.90;;;;;;7290832;19;20197;-85
2023/12/10 04:01:57;;;;;;;29.97;4.80;;;10.50;99.90;;;;;;7295024;19;20199;-85
2023/12/10 04:04:23;;;;;;;33.23;4.23;;;10.60;99.90;;;;;;7300313;19;20228;-84
2023/12/10 04:06:48;;;;;;;36.17;5.03;;;10.60;99.90;;;;;;7312635;19;20191;-85
2023/12/10 04:09:14;;;;;;;35.37;4.47;;;10.50;99.90;;;;;;7290838;19;20194;-85
2023/12/10 04:11:40;;;;;;;33.77;4.87;;;10.60;99.90;;;;;;7293876;19;20227;-85
2023/12/10 04:14:09;;;;;;;33.33;4.90;;;10.70;99.90;;;;;;7290714;19;20688;-86
2023/12/10 04:16:36;;;;;;;35.40;4.37;;;10.80;99.90;;;;;;7290885;19;20266;-85
2023/12/10 04:19:03;;;;;;;37.23;5.10;;;10.80;99.90;;;;;;7287952;19;20207;-86
2023/12/10 04:21:28;;;;;;;35.40;5.23;;;10.90;99.90;;;;;;7285305;19;20202;-85
2023/12/10 04:23:54;;;;;;;27.33;4.93;;;10.90;99.90;;;;;;7287563;19;20180;-85
2023/12/10 04:26:21;;;;;;;33.30;4.63;;;10.80;99.90;;;;;;7314522;19;20201;-86
2023/12/10 04:28:48;;;;;;;31.67;5.33;;;10.80;99.90;;;;;;7286101;19;20191;-86
2023/12/10 04:31:14;;;;;;;38.67;5.23;;;10.80;99.90;;;;;;7285823;19;20199;-86
2023/12/10 04:33:41;;;;;;;39.43;5.77;;;10.80;99.90;;;;;;7286141;19;20197;-85
2023/12/10 04:36:08;;;;;;;32.40;5.10;;;10.70;99.90;;;;;;7284474;19;20197;-86
2023/12/10 04:38:34;;;;;;;35.67;4.90;;;10.60;99.90;;;;;;7284724;19;20198;-86
2023/12/10 04:40:59;;;;;;;37.90;5.10;;;10.70;99.90;;;;;;7283125;19;20207;-85
2023/12/10 04:43:25;;;;;;;35.17;5.33;;;10.60;99.90;;;;;;7284525;19;20190;-85
2023/12/10 04:45:51;;;;;;;30.80;4.67;;;10.70;99.90;;;;;;7302045;19;20302;-84
2023/12/10 04:48:17;;;;;;;41.27;4.77;;;10.70;99.90;;;;;;7295270;19;20206;-85
2023/12/10 04:50:42;;;;;;;31.77;4.50;;;10.70;99.90;;;;;;7284777;19;20243;-85
2023/12/10 04:53:08;;;;;;;37.27;4.83;;;10.60;99.90;;;;;;7286456;19;20221;-85
2023/12/10 04:55:34;;;;;;;40.03;5.00;;;10.60;99.90;;;;;;7284413;19;20230;-85
2023/12/10 04:58:00;;;;;;;40.90;5.33;;;10.60;99.90;;;;;;7284102;19;20761;-85
2023/12/10 05:00:26;;;;;;;31.83;4.97;;;10.50;99.90;;;;;;7285706;19;20201;-85
2023/12/10 05:02:52;;;;;;;33.70;5.27;;;10.50;99.90;;;;;;7295936;19;20229;-84
2023/12/10 05:05:18;;;;;;;37.67;4.57;;;10.50;99.90;;;;;;7304576;19;20197;-85
2023/12/10 05:07:44;;;;;;;25.97;4.20;;;10.50;99.90;;;;;;7284604;19;20197;-85
2023/12/10 05:10:10;;;;;;;34.87;5.07;;;10.50;99.90;;;;;;7283721;19;20543;-85
2023/12/10 05:12:36;;;;;;;34.03;4.73;;;10.60;99.90;;;;;;7284347;19;20194;-86
2023/12/10 05:15:03;;;;;;;35.27;5.07;;;10.70;99.90;;;;;;7284063;19;20200;-86
2023/12/10 05:17:28;;;;;;;35.00;5.13;;;10.90;99.90;;;;;;7283449;19;20198;-86
2023/12/10 05:19:54;;;;;;;35.90;4.73;;;11.00;99.90;;;;;;7283362;19;20186;-86
2023/12/10 05:22:20;;;;;;;39.53;4.60;;;11.10;99.90;;;;;;7306638;19;20190;-86
2023/12/10 05:24:47;;;;;;;34.67;4.90;;;11.10;99.90;;;;;;7284717;19;20536;-86
2023/12/10 05:27:13;;;;;;;31.73;5.03;;;11.00;99.90;;;;;;7284808;19;20187;-86
2023/12/10 05:29:39;;;;;;;32.07;4.37;;;11.00;99.90;;;;;;7283595;19;20197;-85
2023/12/10 05:32:05;;;;;;;40.00;5.67;;;11.00;99.90;;;;;;7284440;19;20209;-84
2023/12/10 05:34:31;;;;;;;33.13;4.50;;;10.90;99.90;;;;;;7281118;19;20199;-86
2023/12/10 05:36:57;;;;;;;35.30;4.90;;;10.90;99.90;;;;;;7282506;19;20242;-86
2023/12/10 05:39:24;;;;;;;35.30;5.13;;;10.80;99.90;;;;;;7284644;19;20206;-85
2023/12/10 05:41:50;;;;;;;41.80;5.17;;;10.70;99.90;;;;;;7305995;19;20205;-86
2023/12/10 05:44:16;;;;;;;34.00;4.73;;;10.70;99.90;;;;;;7282209;19;20190;-86
2023/12/10 05:46:41;;;;;;;29.07;4.40;;;10.60;99.90;;;;;;7284435;19;20563;-86
2023/12/10 05:49:07;;;;;;;40.47;4.83;;;10.50;99.90;;;;;;7281263;19;20195;-86
2023/12/10 05:51:33;;;;;;;27.73;4.67;;;10.50;99.90;;;;;;7284121;19;20206;-86
2023/12/10 05:53:59;;;;;;;36.27;4.40;;;10.50;99.90;;;;;;7296502;19;20241;-85
2023/12/10 05:56:25;;;;;;;32.63;5.50;;;10.50;99.90;;;;;;7291750;19;20190;-86
2023/12/10 05:58:50;;;;;;;32.43;4.83;;;10.50;99.90;;;;;;7312691;19;20199;-86
2023/12/10 06:01:16;;;;;;;25.07;4.50;;;10.40;99.90;;;;;;7289231;19;20206;-86
2023/12/10 06:03:42;;;;;;;36.17;4.53;;;10.50;99.90;;;;;;7287495;19;20183;-86
2023/12/10 06:06:08;;;;;;;32.07;4.00;;;10.40;99.90;;;;;;7288687;19;20238;-85
2023/12/10 06:08:34;;;;;;;36.53;4.57;;;10.40;99.90;;;;;;7289664;19;20217;-85
2023/12/10 06:10:59;;;;;;;38.07;4.40;;;10.40;99.90;;;;;;7289407;19;20209;-85
2023/12/10 06:13:27;;;;;;;29.60;4.37;;;10.40;99.90;;;;;;7287105;19;20185;-85
2023/12/10 06:15:54;;;;;;;35.73;5.33;;;10.40;99.90;;;;;;7290829;19;20210;-85
2023/12/10 06:18:21;;;;;;;34.87;4.37;;;10.40;99.90;;;;;;7312142;19;20190;-86
2023/12/10 06:20:46;;;;;;;31.77;4.70;;;10.30;99.90;;;;;;7290025;19;20612;-86
2023/12/10 06:23:12;;;;;;;37.10;4.50;;;10.20;99.90;;;;;;7285101;19;20178;-86
2023/12/10 06:25:38;;;;;;;35.70;4.63;;;10.30;99.90;;;;;;7289143;19;20191;-85
2023/12/10 06:28:04;;;;;;;33.00;4.33;;;10.30;99.90;;;;;;7287558;19;20193;-85
2023/12/10 06:30:30;;;;;;;35.90;5.20;;;10.40;99.90;;;;;;7289338;19;20703;-85
2023/12/10 06:32:56;;;;;;;35.07;4.33;;;10.40;99.90;;;;;;7289375;19;20202;-86
2023/12/10 06:35:22;;;;;;;39.33;4.93;;;10.40;99.90;;;;;;7301208;19;20276;-85
2023/12/10 06:37:48;;;;;;;36.20;4.60;;;10.50;99.90;;;;;;7309592;19;20199;-85
2023/12/10 06:40:14;;;;;;;38.80;4.20;;;10.50;99.90;;;;;;7288450;19;20189;-85
2023/12/10 06:42:40;;;;;;;35.00;4.90;;;10.50;99.90;;;;;;7286418;19;20595;-85
2023/12/10 06:45:06;;;;;;;36.20;5.30;;;10.50;99.90;;;;;;7288495;19;20192;-86
2023/12/10 06:47:33;;;;;;;32.97;4.33;;;10.40;99.90;;;;;;7287318;19;20194;-84
2023/12/10 06:49:59;;;;;;;36.50;4.47;;;10.40;99.90;;;;;;7286658;19;20194;-86
2023/12/10 06:52:25;;;;;;;42.27;4.97;;;10.50;99.90;;;;;;7288128;19;20967;-86
2023/12/10 06:54:51;;;;;;;36.20;5.37;;;10.50;99.90;;;;;;7307896;19;20190;-83
2023/12/10 06:57:17;;;;;;;44.03;4.67;;;10.40;99.90;;;;;;7297499;19;20207;-83
2023/12/10 06:59:43;;;;;;;34.73;4.43;;;10.30;99.90;;;;;;7285525;19;20224;-85
2023/12/10 07:02:09;;;;;;;35.83;4.90;;;10.30;99.90;;;;;;7284392;19;20190;-85
2023/12/10 07:04:36;;;;;;;38.57;5.47;;;10.30;99.90;;;;;;7285736;19;20195;-87
2023/12/10 07:07:02;;;;;;;36.00;4.57;;;10.20;99.90;;;;;;7285186;19;20555;-87
2023/12/10 07:09:28;;;;;;;38.13;5.57;;;10.20;99.90;;;;;;7290455;19;20268;-88
2023/12/10 07:11:53;;;;;;;30.17;5.23;;;10.20;99.90;;;;;;7286193;19;20257;-82
2023/12/10 07:14:19;;;;;;;30.27;4.70;;;10.20;99.90;;;;;;7309034;19;20193;-86
2023/12/10 07:16:45;;;;;;;36.87;4.93;;;10.20;99.90;;;;;;7288214;19;20196;-86
2023/12/10 07:19:11;;;;;;;41.73;5.23;;;10.20;99.90;;;;;;7288595;19;20227;-86
2023/12/10 07:21:37;;;;;;;39.60;5.80;;;10.20;99.90;;;;;;7289756;19;20195;-86
2023/12/10 07:24:04;;;;;;;38.57;4.87;;;10.20;99.90;;;;;;7292168;19;20218;-86
2023/12/10 07:26:30;;;;;;;35.90;5.10;;;10.30;99.90;;;;;;7287169;19;20193;-86
2023/12/10 07:28:56;;;;;;;35.90;4.90;;;10.30;99.90;;;;;;7287930;19;20206;-87
2023/12/10 07:31:22;;;;;;;38.30;5.33;;;10.40;99.90;;;;;;7303295;19;20190;-85
2023/12/10 07:33:47;;;;;;;37.43;4.83;;;10.40;99.90;;;;;;7302131;19;20194;-86
2023/12/10 07:36:14;;;;;;;33.57;5.87;;;10.30;99.90;;;;;;7285737;19;20198;-86
2023/12/10 07:38:40;;;;;;;32.87;5.03;;;10.30;99.90;;;;;;7288331;19;20210;-85
2023/12/10 07:41:06;;;;;;;34.77;5.00;;;10.40;99.90;;;;;;7287525;19;20250;-84
2023/12/10 07:43:32;;;;;;;41.10;5.07;;;10.30;99.90;;;;;;7285075;19;20201;-85
2023/12/10 07:45:58;;;;;;;28.50;4.17;;;10.40;99.90;;;;;;7288028;19;20194;-85
2023/12/10 07:48:24;;;;;;;32.40;5.23;;;10.50;99.90;;;;;;7286777;19;20198;-85
2023/12/10 07:50:49;;;;;;;29.40;4.13;;;10.40;99.90;;;;;;7308362;19;20194;-86
2023/12/10 07:53:16;;;;;;;34.37;4.70;;;10.40;99.90;;;;;;7285818;19;20206;-86
2023/12/10 07:55:43;;;;;;;34.70;5.80;;;10.40;99.90;;;;;;7285429;19;20189;-86
2023/12/10 07:58:09;;;;;;;35.13;5.30;;;10.40;99.90;;;;;;7286630;19;20186;-85
2023/12/10 08:00:34;;;;;;;32.53;5.40;;;10.40;99.90;;;;;;7286689;19;21857;-86
2023/12/10 08:03:00;;;;;;;38.30;4.90;;;10.40;99.90;;;;;;7285819;19;20544;-86
2023/12/10 08:05:26;;;;;;;33.77;5.07;;;10.50;99.90;;;;;;7285380;19;20225;-85
2023/12/10 08:07:52;;;;;;;28.77;4.43;;;10.50;99.90;;;;;;7300461;19;20320;-85
2023/12/10 08:10:18;;;;;;;36.67;4.83;;;10.50;99.90;;;;;;7301302;19;20222;-86
2023/12/10 08:12:44;;;;;;;37.67;5.10;;;10.50;99.90;;;;;;7286714;19;20206;-85
2023/12/10 08:15:10;;;;;;;33.93;5.13;;;10.50;99.90;;;;;;7281759;19;20192;-86
2023/12/10 08:17:36;;;;;;;34.73;5.57;;;10.50;99.90;;;;;;7285239;19;20190;-86
2023/12/10 08:20:03;;;;;;;34.33;5.37;;;10.60;99.90;;;;;;7282581;19;20200;-85
2023/12/10 08:22:29;;;;;;;38.87;4.97;;;10.60;99.90;;;;;;7283757;19;20204;-86
2023/12/10 08:24:54;;;;;;;47.80;6.40;;;10.60;99.90;;;;;;7285329;19;20651;-85
2023/12/10 08:27:20;;;;;;;43.07;5.70;;;10.60;99.90;;;;;;7307546;19;20182;-86
2023/12/10 08:29:46;;;;;;;52.97;6.67;;;10.60;99.90;;;;;;7284169;19;20189;-85
2023/12/10 08:32:12;;;;;;;49.50;6.57;;;10.60;99.90;;;;;;7285569;19;20206;-86
2023/12/10 08:34:38;;;;;;;43.50;6.20;;;10.50;99.90;;;;;;7285496;19;20265;-86
2023/12/10 08:37:05;;;;;;;42.63;5.63;;;10.50;99.90;;;;;;7283431;19;20530;-86
2023/12/10 08:39:31;;;;;;;48.20;6.57;;;10.60;99.90;;;;;;7285527;19;20206;-89
2023/12/10 08:41:56;;;;;;;40.73;6.03;;;10.50;99.90;;;;;;7285821;19;20194;-88
2023/12/10 08:44:23;;;;;;;45.13;6.20;;;10.50;99.90;;;;;;7288620;19;20193;-87
2023/12/10 08:46:49;;;;;;;41.53;6.27;;;10.60;99.90;;;;;;7306230;19;20184;-89
2023/12/10 08:49:15;;;;;;;43.53;6.30;;;10.70;99.90;;;;;;7289773;19;20201;-88
2023/12/10 08:51:41;;;;;;;41.20;6.90;;;10.80;99.90;;;;;;7288891;19;20727;-88
2023/12/10 08:54:07;;;;;;;37.80;5.60;;;10.80;99.90;;;;;;7283266;19;20191;-88
2023/12/10 08:56:33;;;;;;;40.00;6.20;;;10.70;99.90;;;;;;7282553;19;20216;-87
2023/12/10 08:58:59;;;;;;;46.00;6.07;;;10.70;99.90;;;;;;7280435;19;20202;-87
2023/12/10 09:01:25;;;;;;;41.50;6.30;;;10.80;99.90;;;;;;7279513;19;20190;-87
2023/12/10 09:03:51;;;;;;;42.57;6.10;;;10.80;99.90;;;;;;7303714;19;20301;-88
2023/12/10 09:06:19;;;;;;;41.80;6.20;;;10.80;99.90;;;;;;7281759;19;20221;-88
2023/12/10 09:08:45;;;;;;;34.60;5.33;;;10.80;99.90;;;;;;7281607;19;20210;-87
2023/12/10 09:11:11;;;;;;;42.80;6.00;;;10.90;99.90;;;;;;7280459;19;20196;-87
2023/12/10 09:13:37;;;;;;;43.43;6.33;;;10.90;99.90;;;;;;7280222;19;20732;-88
2023/12/10 09:16:03;;;;;;;43.47;5.57;;;10.90;99.90;;;;;;7280240;19;20646;-88
2023/12/10 09:18:29;;;;;;;48.13;6.20;;;10.90;99.90;;;;;;7279663;19;20190;-87
2023/12/10 09:20:55;;;;;;;48.10;6.70;;;10.90;99.90;;;;;;7278931;19;20576;-87
2023/12/10 09:23:21;;;;;;;40.97;6.00;;;11.00;99.90;;;;;;7301406;19;20202;-87
2023/12/10 09:25:48;;;;;;;41.83;6.43;;;11.10;99.90;;;;;;7281911;19;20194;-86
2023/12/10 09:28:13;;;;;;;51.27;5.57;;;11.20;99.90;;;;;;7286617;19;20198;-88
2023/12/10 09:30:39;;;;;;;44.27;6.30;;;11.20;99.90;;;;;;7285807;19;20187;-87
2023/12/10 09:33:05;;;;;;;43.77;6.13;;;11.20;99.90;;;;;;7287349;19;21033;-87
2023/12/10 09:35:31;;;;;;;39.33;7.63;;;11.20;99.90;;;;;;7286940;19;20190;-88
2023/12/10 09:37:57;;;;;;;51.70;6.40;;;11.30;99.90;;;;;;7286150;19;20869;-88
2023/12/10 09:40:23;;;;;;;47.03;6.77;;;11.40;99.90;;;;;;7295790;19;20183;-87
2023/12/10 09:42:49;;;;;;;50.57;7.40;;;11.40;99.90;;;;;;7307445;19;20187;-88
2023/12/10 09:45:15;;;;;;;45.37;6.17;;;11.40;99.90;;;;;;7282821;19;20200;-88
2023/12/10 09:47:44;;;;;;;45.50;6.53;;;11.50;99.90;;;;;;7285918;19;20195;-87
2023/12/10 09:50:10;;;;;;;52.87;6.77;;;11.60;99.90;;;;;;7285969;19;20187;-87
2023/12/10 09:52:36;;;;;;;38.30;6.77;;;11.70;99.90;;;;;;7289041;19;20205;-87
2023/12/10 09:55:02;;;;;;;43.43;6.23;;;11.60;99.90;;;;;;7285811;19;20189;-87
2023/12/10 09:57:30;;;;;;;39.23;5.43;;;11.80;99.90;;;;;;7287538;19;20205;-87
2023/12/10 09:59:56;;;;;;;41.13;6.13;;;12.00;99.90;;;;;;7287089;19;20184;-86
2023/12/10 10:02:30;;;;;;;41.87;6.10;;;12.00;99.90;;;;;;7309874;19;20195;-86
2023/12/10 10:04:56;;;;;;;51.37;6.63;;;12.00;99.90;;;;;;7268076;19;20215;-86
2023/12/10 10:07:22;;;;;;;45.37;5.63;;;12.00;99.90;;;;;;7306254;19;20299;-85
2023/12/10 10:09:47;;;;;;;41.43;5.90;;;12.10;99.90;;;;;;7301307;19;20194;-87
2023/12/10 10:12:14;;;;;;;36.03;5.23;;;12.10;99.90;;;;;;7291287;19;20185;-86
2023/12/10 10:14:55;;;;;;;37.40;5.83;;;12.10;99.90;;;;;;7298562;19;20192;-86
2023/12/10 10:17:28;;;;;;;41.77;5.87;;;12.40;99.90;;;;;;7299383;19;20189;-87
2023/12/10 10:19:54;;;;;;;40.33;5.33;;;12.50;99.90;;;;;;7273100;19;20283;-86
2023/12/10 10:22:23;;;;;;;36.93;5.63;;;12.40;99.90;;;;;;7317278;19;20709;-87
2023/12/10 10:24:49;;;;;;;34.10;5.90;;;12.50;99.90;;;;;;7293791;19;20719;-87
2023/12/10 10:27:14;;;;;;;34.83;6.20;;;12.50;99.90;;;;;;7293527;19;20288;-87
2023/12/10 10:29:40;;;;;;;43.87;6.37;;;12.50;99.90;;;;;;7291525;19;20190;-87
2023/12/10 10:32:10;;;;;;;33.13;5.07;;;12.50;99.90;;;;;;7296540;19;20200;-87
2023/12/10 10:34:35;;;;;;;37.47;5.90;;;12.50;99.90;;;;;;7288741;19;20272;-86
2023/12/10 10:37:02;;;;;;;30.83;5.40;;;12.50;99.90;;;;;;7288342;19;20745;-87
2023/12/10 10:39:30;;;;;;;38.10;6.23;;;12.50;99.90;;;;;;7286460;19;20292;-87
2023/12/10 10:41:56;;;;;;;33.73;5.73;;;12.40;99.90;;;;;;7288574;19;20193;-87
2023/12/10 10:44:22;;;;;;;38.93;5.27;;;12.50;99.90;;;;;;7312096;19;20647;-85
2023/12/10 10:46:47;;;;;;;36.63;5.27;;;12.50;99.90;;;;;;7288756;19;20199;-87
2023/12/10 10:49:14;;;;;;;39.53;6.17;;;12.70;99.90;;;;;;7286890;19;20249;-87
2023/12/10 10:51:40;;;;;;;47.47;5.60;;;12.50;99.90;;;;;;7290234;19;20211;-87
2023/12/10 10:54:07;;;;;;;33.80;5.63;;;12.60;99.90;;;;;;7288686;19;20217;-87
2023/12/10 10:56:33;;;;;;;34.97;5.57;;;12.70;99.90;;;;;;7290230;19;20211;-87
2023/12/10 10:59:00;;;;;;;38.37;5.63;;;12.70;99.90;;;;;;7288353;19;20185;-87
2023/12/10 11:01:42;;;;;;;34.40;4.70;;;12.60;99.90;;;;;;7288042;19;20221;-86
2023/12/10 11:04:12;;;;;;;39.30;5.70;;;12.80;99.90;;;;;;7289091;19;20193;-87
2023/12/10 11:06:41;;;;;;;36.87;6.00;;;12.70;99.90;;;;;;7286179;19;20200;-87
2023/12/10 11:09:08;;;;;;;31.30;5.70;;;12.90;99.90;;;;;;7286596;19;20189;-87
2023/12/10 11:11:39;;;;;;;30.33;5.83;;;13.00;99.90;;;;;;7285956;19;20185;-87
2023/12/10 11:14:21;;;;;;;39.00;6.10;;;13.00;99.90;;;;;;7286467;19;20832;-87
2023/12/10 11:16:50;;;;;;;41.43;5.70;;;13.00;99.90;;;;;;7286639;19;20184;-86
2023/12/10 11:19:18;;;;;;;35.70;5.73;;;13.00;99.90;;;;;;7289653;19;20652;-87
2023/12/10 11:21:44;;;;;;;35.37;5.23;;;12.90;99.90;;;;;;7287603;19;20192;-87
2023/12/10 11:24:09;;;;;;;35.20;6.17;;;12.90;99.90;;;;;;7289717;19;20526;-87
2023/12/10 11:26:35;;;;;;;36.87;5.37;;;12.90;99.90;;;;;;7287366;19;20552;-86
2023/12/10 11:29:03;;;;;;;35.83;5.53;;;13.10;99.90;;;;;;7288326;19;20189;-82
2023/12/10 11:31:29;;;;;;;37.00;5.13;;;13.00;99.90;;;;;;7291053;19;20185;-87
2023/12/10 11:33:55;;;;;;;34.50;5.60;;;12.90;99.90;;;;;;7288113;19;20220;-86
2023/12/10 11:36:21;;;;;;;33.90;5.20;;;12.80;99.90;;;;;;7309586;19;20269;-86
2023/12/10 11:38:47;;;;;;;43.20;5.73;;;12.70;99.90;;;;;;7288143;19;20181;-86
2023/12/10 11:41:13;;;;;;;36.37;5.17;;;12.80;99.90;;;;;;7288845;19;20198;-86
2023/12/10 11:43:41;;;;;;;33.57;5.23;;;12.70;99.90;;;;;;7301401;19;20186;-86
2023/12/10 11:46:07;;;;;;;30.47;5.00;;;13.00;99.90;;;;;;7289496;19;20269;-86
2023/12/10 11:48:33;;;;;;;31.30;5.30;;;13.10;99.90;;;;;;7285520;19;20245;-86
2023/12/10 11:51:00;;;;;;;35.93;5.10;;;13.30;99.90;;;;;;7285984;19;20194;-85
2023/12/10 11:53:26;;;;;;;34.93;5.53;;;13.30;99.90;;;;;;7286632;19;20213;-85
2023/12/10 11:55:52;;;;;;;29.43;4.97;;;13.30;99.90;;;;;;7308647;19;20193;-86
2023/12/10 11:58:26;;;;;;;32.47;4.53;;;13.40;99.90;;;;;;7286886;19;20186;-86
2023/12/10 12:00:57;;;;;;;31.50;5.67;;;13.40;99.90;;;;;;7284941;19;20208;-83
2023/12/10 12:03:23;;;;;;;30.60;5.07;;;13.40;99.90;;;;;;7296767;19;20688;-85
2023/12/10 12:05:52;;;;;;;33.87;5.03;;;13.20;99.90;;;;;;7306090;19;20193;-85
2023/12/10 12:08:26;;;;;;;33.03;5.40;;;13.20;99.90;;;;;;7287283;19;20200;-86
2023/12/10 12:10:53;;;;;;;31.70;5.97;;;13.20;99.90;;;;;;7282050;19;20189;-81
2023/12/10 12:13:19;;;;;;;34.03;6.73;;;13.20;99.90;;;;;;7307344;19;20181;-85
2023/12/10 12:15:46;;;;;;;44.17;7.53;;;13.20;99.90;;;;;;7286575;19;20280;-86
2023/12/10 12:18:12;;;;;;;32.10;6.60;;;13.20;99.90;;;;;;7285068;19;20659;-86
2023/12/10 12:20:39;;;;;;;39.40;7.60;;;13.30;99.90;;;;;;7283077;19;20210;-86
2023/12/10 12:23:05;;;;;;;42.90;11.80;;;13.30;99.90;;;;;;7285778;19;20203;-86
2023/12/10 12:25:34;;;;;;;44.47;8.13;;;13.20;99.90;;;;;;7285957;19;20574;-85
2023/12/10 12:28:05;;;;;;;37.70;12.87;;;13.20;99.90;;;;;;7283460;19;20197;-86
2023/12/10 12:30:32;;;;;;;46.03;11.87;;;13.30;99.90;;;;;;7285103;19;20197;-86
2023/12/10 12:32:57;;;;;;;37.97;7.00;;;13.30;99.90;;;;;;7282753;19;20224;-86